Time;durP1;ratioP1;P1;durP2;ratioP2;P2;SDS_P1;SDS_P2;PMS_P1;PMS_P2;Temp;Humidity;BMP_temperature;BMP_pressure;BME280_temperature;BME280_humidity;BME280_pressure;Samples;Min_cycle;Max_cycle;Signal;HPM_P1;HPM_P2
2021/10/07 00:04:38;;;;;;;5.17;1.93;;;13.70;99.90;;;;;;9892817;30;20252;-83
2021/10/07 00:09:40;;;;;;;2.40;1.97;;;13.70;99.90;;;;;;9892707;30;20606;-83
2021/10/07 00:14:44;;;;;;;2.33;2.03;;;13.70;99.90;;;;;;9890663;30;20283;-82
2021/10/07 00:19:46;;;;;;;2.00;1.90;;;13.80;99.90;;;;;;9890148;30;20590;-83
2021/10/07 00:24:48;;;;;;;2.00;1.90;;;13.70;99.90;;;;;;9890118;30;20235;-82
2021/10/07 00:29:54;;;;;;;1.80;1.70;;;13.80;99.90;;;;;;9856377;30;20235;-82
2021/10/07 00:35:10;;;;;;;2.30;2.10;;;13.80;99.90;;;;;;9855648;30;20246;-83
2021/10/07 00:40:12;;;;;;;2.60;2.30;;;13.80;99.90;;;;;;9842919;30;20207;-83
2021/10/07 00:45:16;;;;;;;2.20;2.10;;;13.80;99.90;;;;;;9842196;30;20262;-83
2021/10/07 00:50:18;;;;;;;2.47;1.90;;;13.90;99.90;;;;;;9857663;30;20233;-83
2021/10/07 00:55:20;;;;;;;2.47;2.23;;;13.90;99.90;;;;;;9873294;30;20711;-83
2021/10/07 01:00:27;;;;;;;2.43;2.30;;;14.00;99.90;;;;;;9859358;29;20210;-83
2021/10/07 01:05:30;;;;;;;2.50;2.27;;;14.00;99.90;;;;;;9884119;29;20229;-83
2021/10/07 01:10:32;;;;;;;2.60;1.97;;;14.00;99.90;;;;;;9880925;30;20235;-83
2021/10/07 01:15:35;;;;;;;2.10;1.90;;;14.00;99.90;;;;;;9860119;30;20239;-82
2021/10/07 01:20:41;;;;;;;2.70;2.07;;;14.00;99.90;;;;;;9861679;30;20200;-83
2021/10/07 01:25:43;;;;;;;2.60;2.40;;;14.00;99.90;;;;;;9912116;30;20329;-83
2021/10/07 01:30:46;;;;;;;2.70;2.50;;;14.00;99.90;;;;;;9894044;29;20253;-83
2021/10/07 01:35:49;;;;;;;2.60;2.40;;;13.90;99.90;;;;;;9903562;30;20310;-83
2021/10/07 01:40:51;;;;;;;3.00;2.67;;;13.90;99.90;;;;;;9914045;30;20591;-83
2021/10/07 01:45:54;;;;;;;2.97;2.20;;;13.90;99.90;;;;;;9873213;30;20844;-83
2021/10/07 01:50:57;;;;;;;2.40;2.30;;;13.90;99.90;;;;;;9848932;30;20226;-82
2021/10/07 01:55:59;;;;;;;2.10;2.00;;;13.90;99.90;;;;;;9855174;30;20340;-83
2021/10/07 02:01:01;;;;;;;2.23;2.00;;;13.90;99.90;;;;;;9849775;30;20589;-83
2021/10/07 02:06:05;;;;;;;2.37;2.27;;;13.90;99.90;;;;;;9857808;30;20246;-82
2021/10/07 02:11:07;;;;;;;2.43;2.33;;;13.90;99.90;;;;;;9871660;30;20618;-83
2021/10/07 02:16:09;;;;;;;5.33;2.60;;;13.90;99.90;;;;;;9856554;30;20240;-83
2021/10/07 02:21:12;;;;;;;2.50;2.30;;;13.90;99.90;;;;;;9879224;30;20696;-82
2021/10/07 02:26:15;;;;;;;2.40;2.30;;;13.90;99.90;;;;;;9896152;30;20230;-83
2021/10/07 02:31:17;;;;;;;3.23;2.60;;;13.90;99.90;;;;;;9859690;30;20223;-82
2021/10/07 02:36:21;;;;;;;2.60;2.40;;;13.90;99.90;;;;;;9851293;30;20337;-82
2021/10/07 02:41:23;;;;;;;2.80;2.27;;;13.90;99.90;;;;;;9842071;30;20207;-82
2021/10/07 02:46:25;;;;;;;2.30;2.20;;;13.90;99.90;;;;;;9874169;30;20242;-82
2021/10/07 02:51:28;;;;;;;3.37;2.33;;;13.90;99.90;;;;;;9873696;30;20231;-82
2021/10/07 02:56:31;;;;;;;3.03;2.50;;;13.90;99.90;;;;;;9898478;30;20242;-82
2021/10/07 03:01:33;;;;;;;2.40;2.30;;;13.90;99.90;;;;;;9889970;30;20215;-82
2021/10/07 03:06:36;;;;;;;3.10;2.90;;;13.90;99.90;;;;;;9865854;30;20239;-82
2021/10/07 03:11:38;;;;;;;2.67;2.47;;;13.90;99.90;;;;;;9879310;30;20769;-83
2021/10/07 03:16:40;;;;;;;2.90;2.10;;;13.90;99.90;;;;;;9861675;30;20242;-83
2021/10/07 03:21:44;;;;;;;2.40;2.17;;;13.90;99.90;;;;;;9880411;30;20672;-83
2021/10/07 03:26:46;;;;;;;2.40;2.30;;;13.90;99.90;;;;;;9888921;30;20231;-83
2021/10/07 03:31:48;;;;;;;2.73;2.53;;;13.90;99.90;;;;;;9864332;30;20230;-83
2021/10/07 03:36:52;;;;;;;2.83;2.23;;;13.80;99.90;;;;;;9861725;30;20265;-83
2021/10/07 03:41:54;;;;;;;3.33;2.67;;;13.80;99.90;;;;;;9865524;30;20212;-83
2021/10/07 03:46:56;;;;;;;3.83;2.60;;;13.80;99.90;;;;;;9881964;30;20329;-83
2021/10/07 03:52:00;;;;;;;3.80;3.50;;;13.80;99.90;;;;;;9869608;29;20238;-83
2021/10/07 03:57:02;;;;;;;3.60;3.30;;;13.90;99.90;;;;;;9863773;30;20902;-82
2021/10/07 04:02:04;;;;;;;2.37;2.00;;;13.90;99.90;;;;;;9883846;30;20214;-82
2021/10/07 04:07:09;;;;;;;2.90;2.70;;;13.90;99.90;;;;;;9871998;30;20241;-83
2021/10/07 04:12:11;;;;;;;2.50;2.40;;;13.90;99.90;;;;;;9889585;30;20254;-83
2021/10/07 04:17:13;;;;;;;2.50;2.30;;;13.90;99.90;;;;;;9889466;30;20250;-82
2021/10/07 04:22:16;;;;;;;2.80;2.60;;;13.90;99.90;;;;;;9889713;30;20228;-83
2021/10/07 04:27:19;;;;;;;2.57;2.37;;;13.90;99.90;;;;;;9874558;30;20322;-83
2021/10/07 04:32:21;;;;;;;2.30;2.20;;;13.80;99.90;;;;;;9846383;30;20915;-82
2021/10/07 04:37:24;;;;;;;2.87;2.67;;;13.80;99.90;;;;;;9886315;30;20246;-82
2021/10/07 04:42:26;;;;;;;2.53;2.33;;;13.80;99.90;;;;;;9889029;30;20213;-82
2021/10/07 04:47:29;;;;;;;3.00;2.80;;;13.80;99.90;;;;;;9881578;30;20616;-84
2021/10/07 04:52:32;;;;;;;2.97;2.87;;;13.80;99.90;;;;;;9865474;30;20260;-82
2021/10/07 04:57:35;;;;;;;5.93;5.53;;;13.80;99.90;;;;;;9865181;30;20250;-81
2021/10/07 05:02:37;;;;;;;3.00;2.80;;;13.80;99.90;;;;;;9863216;29;20222;-82
2021/10/07 05:07:41;;;;;;;3.97;2.93;;;13.70;99.90;;;;;;9913790;30;20313;-82
2021/10/07 05:12:43;;;;;;;3.57;3.30;;;13.70;99.90;;;;;;9914252;30;20231;-82
2021/10/07 05:17:45;;;;;;;3.07;2.87;;;13.70;99.90;;;;;;9870542;30;20632;-82
2021/10/07 05:22:49;;;;;;;2.47;2.27;;;13.70;99.90;;;;;;9887159;30;20217;-82
2021/10/07 05:27:51;;;;;;;3.00;2.80;;;13.70;99.90;;;;;;9884778;30;20262;-82
2021/10/07 05:32:53;;;;;;;2.83;2.50;;;13.70;99.90;;;;;;9852726;30;20236;-83
2021/10/07 05:37:56;;;;;;;2.57;2.47;;;13.70;99.90;;;;;;9862326;30;20251;-83
2021/10/07 05:42:59;;;;;;;2.60;2.40;;;13.70;99.90;;;;;;9896528;30;20207;-83
2021/10/07 05:48:01;;;;;;;3.33;3.03;;;13.70;99.90;;;;;;9910169;30;20235;-82
2021/10/07 05:53:04;;;;;;;5.63;3.40;;;13.80;99.90;;;;;;9866697;30;20296;-82
2021/10/07 05:58:06;;;;;;;3.00;2.70;;;13.80;99.90;;;;;;9878522;30;20272;-82
2021/10/07 06:03:10;;;;;;;3.60;3.40;;;13.90;99.90;;;;;;9878155;30;20207;-82
2021/10/07 06:08:14;;;;;;;3.10;2.50;;;13.90;99.90;;;;;;9874164;30;20239;-82
2021/10/07 06:13:16;;;;;;;2.43;2.33;;;13.90;99.90;;;;;;9883516;30;20226;-81
2021/10/07 06:36:18;;;;;;;3.63;3.33;;;14.00;99.90;;;;;;9896571;29;20708;-81
2021/10/07 06:41:22;;;;;;;3.63;3.43;;;14.10;99.90;;;;;;9882598;30;20692;-81
2021/10/07 06:46:25;;;;;;;3.57;3.37;;;14.10;99.90;;;;;;9896941;29;20243;-81
2021/10/07 06:51:29;;;;;;;3.00;2.80;;;14.20;99.90;;;;;;9896637;29;20223;-81
2021/10/07 06:56:32;;;;;;;4.83;3.83;;;14.30;99.90;;;;;;9894780;29;20254;-82
2021/10/07 07:01:34;;;;;;;7.50;4.97;;;14.30;99.90;;;;;;9884576;30;20207;-82
2021/10/07 07:06:37;;;;;;;5.20;4.80;;;14.40;99.90;;;;;;9879136;30;20277;-82
2021/10/07 07:11:39;;;;;;;5.30;4.70;;;14.40;99.90;;;;;;9890500;30;20314;-85
2021/10/07 07:16:42;;;;;;;5.77;5.30;;;14.40;99.90;;;;;;9875362;29;20273;-83
2021/10/07 07:21:45;;;;;;;6.30;5.67;;;14.40;99.90;;;;;;9881607;30;20242;-81
2021/10/07 07:26:47;;;;;;;6.43;5.83;;;14.50;99.90;;;;;;9882936;29;20665;-81
2021/10/07 07:31:50;;;;;;;7.50;6.80;;;14.50;99.90;;;;;;9897200;29;20239;-81
2021/10/07 07:36:53;;;;;;;8.30;6.27;;;14.50;99.90;;;;;;9907557;29;20792;-84
2021/10/07 07:41:56;;;;;;;8.10;6.90;;;14.60;99.90;;;;;;9896184;29;20234;-81
2021/10/07 08:05:46;;;;;;;19.23;9.30;;;14.60;99.90;;;;;;9732571;30;20334;-82
2021/10/07 08:10:48;;;;;;;7.60;6.90;;;14.60;99.90;;;;;;9804845;30;20301;-82
2021/10/07 08:15:51;;;;;;;8.30;7.60;;;14.60;99.90;;;;;;9808704;30;20250;-82
2021/10/07 08:20:55;;;;;;;15.00;8.60;;;14.70;99.90;;;;;;9808586;30;20218;-82
2021/10/07 08:25:58;;;;;;;10.00;9.10;;;14.80;99.90;;;;;;9891072;30;20238;-82
2021/10/07 08:31:00;;;;;;;10.47;9.47;;;14.80;99.90;;;;;;9866217;30;20227;-83
2021/10/07 08:36:04;;;;;;;10.00;9.10;;;14.90;99.90;;;;;;9871251;29;20647;-83
2021/10/07 08:41:06;;;;;;;10.17;9.27;;;15.10;99.90;;;;;;9888911;30;20309;-84
2021/10/07 08:46:11;;;;;;;10.03;9.17;;;15.30;99.90;;;;;;9872269;30;20288;-84
2021/10/07 08:51:15;;;;;;;10.10;9.30;;;15.40;99.90;;;;;;9904527;30;20518;-84
2021/10/07 08:56:17;;;;;;;9.80;9.10;;;15.70;99.90;;;;;;9860364;30;20245;-83
2021/10/07 09:01:37;;;;;;;8.23;7.43;;;15.80;99.90;;;;;;9903741;30;20214;-84
2021/10/07 09:06:41;;;;;;;10.10;9.10;;;15.90;99.90;;;;;;9867675;30;20238;-84
2021/10/07 09:11:45;;;;;;;9.10;8.40;;;15.90;99.90;;;;;;9889023;30;20653;-84
2021/10/07 09:16:49;;;;;;;9.20;8.50;;;16.00;99.90;;;;;;9862473;30;20238;-83
2021/10/07 09:21:55;;;;;;;10.23;9.30;;;16.00;99.90;;;;;;9887694;30;20246;-83
2021/10/07 09:27:00;;;;;;;10.27;9.33;;;16.00;99.90;;;;;;9864001;30;20238;-83
2021/10/07 09:32:02;;;;;;;10.93;10.07;;;16.00;99.90;;;;;;9880739;30;20246;-84
2021/10/07 09:37:22;;;;;;;10.13;9.33;;;16.00;99.90;;;;;;9856563;30;20617;-83
2021/10/07 09:42:29;;;;;;;10.97;9.97;;;16.00;99.90;;;;;;9853871;30;20309;-84
2021/10/07 09:47:33;;;;;;;10.73;9.87;;;15.90;99.90;;;;;;9883833;30;20251;-84
2021/10/07 09:52:38;;;;;;;11.77;10.43;;;15.80;99.90;;;;;;9891150;30;20258;-84
2021/10/07 09:57:59;;;;;;;10.93;9.70;;;15.70;99.90;;;;;;9892763;30;20604;-84
2021/10/07 10:03:02;;;;;;;15.17;10.10;;;15.80;99.90;;;;;;9854290;30;20318;-84
2021/10/07 10:08:08;;;;;;;13.80;11.20;;;15.90;99.90;;;;;;9865272;30;20243;-84
2021/10/07 10:13:11;;;;;;;10.57;9.70;;;16.00;99.90;;;;;;9822060;30;20736;-84
2021/10/07 10:18:15;;;;;;;12.03;9.00;;;16.10;99.90;;;;;;9883703;30;20302;-82
2021/10/07 10:23:21;;;;;;;10.47;9.47;;;16.20;99.90;;;;;;9871779;30;20594;-82
2021/10/07 10:28:31;;;;;;;8.67;7.87;;;16.30;99.90;;;;;;9885064;30;20246;-82
2021/10/07 10:33:35;;;;;;;9.30;8.50;;;16.40;99.90;;;;;;9869585;30;20747;-81
2021/10/07 10:38:42;;;;;;;8.47;7.80;;;16.50;99.90;;;;;;9898412;24;20337;-81
2021/10/07 10:43:44;;;;;;;7.83;6.63;;;16.50;99.90;;;;;;9887908;30;20245;-81
2021/10/07 10:49:04;;;;;;;8.17;6.97;;;16.60;99.90;;;;;;9884933;30;20292;-82
2021/10/07 10:54:15;;;;;;;8.90;8.20;;;16.60;99.90;;;;;;9899254;30;20234;-82
2021/10/07 10:59:20;;;;;;;9.47;8.73;;;16.80;99.90;;;;;;9895614;29;20317;-81
2021/10/07 11:04:44;;;;;;;9.00;8.20;;;16.90;99.90;;;;;;9883912;30;20240;-82
2021/10/07 11:10:05;;;;;;;9.37;8.03;;;16.90;99.90;;;;;;9884843;30;20244;-82
2021/10/07 11:15:09;;;;;;;8.30;7.60;;;17.10;99.90;;;;;;9885645;29;20250;-82
2021/10/07 11:20:14;;;;;;;9.27;8.33;;;17.10;99.90;;;;;;9905067;30;20237;-82
2021/10/07 11:25:20;;;;;;;8.20;7.70;;;17.10;99.90;;;;;;9901995;29;20227;-82
2021/10/07 11:30:24;;;;;;;8.00;7.30;;;17.10;99.90;;;;;;9912711;30;20305;-81
2021/10/07 11:35:28;;;;;;;8.20;7.40;;;17.00;99.90;;;;;;9881742;29;20296;-82
2021/10/07 11:40:35;;;;;;;7.30;6.60;;;17.00;99.90;;;;;;9896388;30;20209;-82
2021/10/07 11:45:40;;;;;;;6.43;6.00;;;17.00;99.90;;;;;;9881468;29;20242;-82
2021/10/07 11:50:44;;;;;;;7.03;6.43;;;16.90;99.90;;;;;;9896620;30;20217;-81
2021/10/07 11:55:48;;;;;;;7.23;6.73;;;16.90;99.90;;;;;;9881952;29;20245;-81
2021/10/07 12:00:52;;;;;;;7.00;6.50;;;17.00;99.90;;;;;;9897302;30;20229;-82
2021/10/07 12:05:59;;;;;;;6.13;5.67;;;17.00;99.90;;;;;;9913395;29;20226;-82
2021/10/07 12:11:04;;;;;;;7.00;6.40;;;17.00;99.90;;;;;;9895657;30;20218;-82
2021/10/07 12:16:13;;;;;;;6.40;5.90;;;17.00;99.90;;;;;;9881086;29;20236;-82
2021/10/07 12:21:17;;;;;;;6.50;6.10;;;17.00;99.90;;;;;;9895640;30;20281;-82
2021/10/07 12:26:32;;;;;;;5.73;5.23;;;17.10;99.90;;;;;;9913016;29;20251;-82
2021/10/07 12:31:35;;;;;;;5.13;4.83;;;17.10;99.90;;;;;;9896193;30;20238;-82
2021/10/07 12:36:43;;;;;;;4.27;3.90;;;17.10;99.90;;;;;;9881596;29;20254;-82
2021/10/07 12:41:46;;;;;;;5.00;4.70;;;17.00;99.90;;;;;;9914177;30;20207;-82
2021/10/07 12:46:59;;;;;;;5.00;4.60;;;16.90;99.90;;;;;;9881546;29;20731;-82
2021/10/07 12:52:01;;;;;;;5.10;4.80;;;17.00;99.90;;;;;;9896919;30;20270;-82
2021/10/07 12:57:05;;;;;;;7.10;6.40;;;17.10;99.90;;;;;;9882558;29;20781;-82
2021/10/07 13:02:07;;;;;;;5.87;5.37;;;17.10;99.90;;;;;;9896845;30;20595;-82
2021/10/07 13:07:09;;;;;;;6.20;5.70;;;17.10;99.90;;;;;;9894472;29;20249;-82
2021/10/07 13:12:13;;;;;;;5.73;5.10;;;17.20;99.90;;;;;;9880916;30;20230;-81
2021/10/07 13:17:15;;;;;;;6.10;5.60;;;17.20;99.90;;;;;;9881872;29;20245;-81
2021/10/07 13:22:17;;;;;;;6.43;5.97;;;17.10;99.90;;;;;;9895246;30;20222;-82
2021/10/07 13:27:23;;;;;;;7.13;4.87;;;17.10;99.90;;;;;;9886743;29;20231;-82
2021/10/07 13:32:26;;;;;;;5.40;5.00;;;17.00;99.90;;;;;;9918536;30;20769;-82
2021/10/07 13:37:28;;;;;;;5.60;5.20;;;17.00;99.90;;;;;;9919937;29;20257;-82
2021/10/07 13:42:33;;;;;;;4.67;4.37;;;16.90;99.90;;;;;;9878533;30;20242;-82
2021/10/07 13:47:35;;;;;;;6.60;4.83;;;16.90;99.90;;;;;;9899665;29;20618;-81
2021/10/07 13:52:37;;;;;;;4.30;4.00;;;16.90;99.90;;;;;;9915344;30;20234;-82
2021/10/07 13:57:40;;;;;;;4.20;3.83;;;16.80;99.90;;;;;;9900288;29;20333;-82
2021/10/07 14:02:43;;;;;;;3.83;3.53;;;16.70;99.90;;;;;;9916612;30;20677;-82
2021/10/07 14:07:45;;;;;;;4.10;3.80;;;16.60;99.90;;;;;;9900598;29;20247;-82
2021/10/07 14:12:49;;;;;;;3.87;3.67;;;16.50;99.90;;;;;;9885653;30;20302;-82
2021/10/07 14:17:51;;;;;;;3.10;3.00;;;16.40;99.90;;;;;;9916253;29;20226;-82
2021/10/07 14:22:53;;;;;;;4.00;3.70;;;16.40;99.90;;;;;;9917157;30;20214;-81
2021/10/07 14:28:00;;;;;;;4.50;4.10;;;16.50;99.90;;;;;;9916554;29;20242;-81
2021/10/07 14:33:02;;;;;;;3.77;3.57;;;16.70;99.90;;;;;;9900578;30;20233;-82
2021/10/07 14:38:04;;;;;;;3.87;3.57;;;16.80;99.90;;;;;;9910920;30;20246;-81
2021/10/07 14:43:08;;;;;;;2.77;2.67;;;16.70;99.90;;;;;;9902358;30;20246;-82
2021/10/07 14:48:10;;;;;;;3.97;2.70;;;16.70;99.90;;;;;;9899126;30;20242;-81
2021/10/07 14:53:12;;;;;;;3.23;3.03;;;16.60;99.90;;;;;;9914253;30;20642;-82
2021/10/07 14:58:16;;;;;;;3.80;3.50;;;16.60;99.90;;;;;;9915245;29;20238;-82
2021/10/07 15:03:18;;;;;;;3.00;2.63;;;16.60;99.90;;;;;;9915928;30;20213;-82
2021/10/07 15:08:20;;;;;;;3.90;3.30;;;16.60;99.90;;;;;;9913760;30;20231;-82
2021/10/07 15:13:24;;;;;;;3.77;3.50;;;16.50;99.90;;;;;;9915180;30;20300;-82
2021/10/07 15:18:27;;;;;;;3.63;3.40;;;16.40;99.90;;;;;;9898824;30;20288;-82
2021/10/07 15:23:29;;;;;;;4.40;3.20;;;16.40;99.90;;;;;;9894842;30;20606;-81
2021/10/07 15:28:33;;;;;;;3.50;3.30;;;16.40;99.90;;;;;;9892957;30;20246;-82
2021/10/07 15:33:35;;;;;;;3.93;3.20;;;16.50;99.90;;;;;;9881323;30;20241;-82
2021/10/07 15:38:37;;;;;;;3.43;3.13;;;16.60;99.90;;;;;;9895918;30;20242;-82
2021/10/07 15:43:41;;;;;;;3.77;3.47;;;16.60;99.90;;;;;;9897744;30;20227;-81
2021/10/07 15:48:45;;;;;;;2.73;2.63;;;16.60;99.90;;;;;;9882741;30;20712;-81
2021/10/07 15:53:47;;;;;;;4.20;3.90;;;16.60;99.90;;;;;;9913553;30;20296;-82
2021/10/07 15:59:08;;;;;;;3.43;3.13;;;16.60;99.90;;;;;;9913210;29;20242;-82
2021/10/07 16:04:10;;;;;;;3.67;3.47;;;16.60;99.90;;;;;;9897394;30;20219;-82
2021/10/07 16:09:12;;;;;;;3.63;3.43;;;16.60;99.90;;;;;;9897771;30;20309;-82
2021/10/07 16:14:16;;;;;;;3.23;3.03;;;16.60;99.90;;;;;;9902234;30;20692;-82
2021/10/07 16:19:18;;;;;;;3.40;3.20;;;16.50;99.90;;;;;;9887051;30;20333;-82
2021/10/07 16:24:20;;;;;;;2.73;2.63;;;16.50;99.90;;;;;;9894236;30;20237;-82
2021/10/07 16:29:24;;;;;;;2.30;2.20;;;16.40;99.90;;;;;;9913227;29;20261;-82
2021/10/07 16:34:26;;;;;;;6.97;2.53;;;16.40;99.90;;;;;;9914444;30;20265;-82
2021/10/07 16:39:28;;;;;;;3.63;3.03;;;16.30;99.90;;;;;;9898106;24;20712;-82
2021/10/07 16:44:31;;;;;;;4.70;2.80;;;16.30;99.90;;;;;;9894785;30;20215;-82
2021/10/07 16:49:33;;;;;;;3.17;2.67;;;16.20;99.90;;;;;;9877260;30;20235;-82
2021/10/07 16:54:36;;;;;;;5.67;4.90;;;16.10;99.90;;;;;;9865447;30;20247;-82
2021/10/07 16:59:39;;;;;;;5.10;4.70;;;16.00;99.90;;;;;;9908207;29;20317;-82
2021/10/07 17:04:44;;;;;;;6.50;5.90;;;15.90;99.90;;;;;;9914561;30;20220;-82
2021/10/07 17:09:47;;;;;;;7.10;6.60;;;15.70;99.90;;;;;;9887403;30;20230;-82
2021/10/07 17:14:53;;;;;;;7.47;6.93;;;15.60;99.90;;;;;;9883559;30;20231;-82
2021/10/07 17:19:55;;;;;;;8.93;8.23;;;15.50;99.90;;;;;;9908997;29;20239;-82
2021/10/07 17:24:58;;;;;;;7.87;7.13;;;15.40;99.90;;;;;;9872048;30;20268;-82
2021/10/07 17:48:27;;;;;;;5.33;2.70;;;14.90;99.90;;;;;;9906290;29;20317;-83
2021/10/07 17:53:30;;;;;;;4.07;3.73;;;14.80;99.90;;;;;;9897112;30;20252;-84
2021/10/07 17:58:34;;;;;;;3.47;3.27;;;14.70;99.90;;;;;;9880056;30;20740;-83
2021/10/07 18:03:38;;;;;;;4.00;3.70;;;14.60;99.90;;;;;;9868462;30;20212;-84
2021/10/07 18:08:40;;;;;;;3.67;3.37;;;14.50;99.90;;;;;;9866064;29;20265;-84
2021/10/07 18:13:43;;;;;;;4.67;3.90;;;14.50;99.90;;;;;;9897808;30;20246;-83
2021/10/07 18:18:47;;;;;;;4.00;3.70;;;14.50;99.90;;;;;;9882343;30;20241;-83
2021/10/07 18:23:49;;;;;;;3.63;3.43;;;14.40;99.90;;;;;;9910444;30;20210;-83
2021/10/07 18:28:52;;;;;;;3.60;3.30;;;14.40;99.90;;;;;;9888788;30;20711;-82
2021/10/07 18:33:58;;;;;;;4.30;4.00;;;14.30;99.90;;;;;;9874805;30;20746;-82
2021/10/07 18:39:00;;;;;;;5.50;5.10;;;14.30;99.90;;;;;;9882901;30;20238;-81
2021/10/07 18:44:02;;;;;;;7.17;6.60;;;14.20;99.90;;;;;;9898613;30;20218;-82
2021/10/07 18:49:06;;;;;;;6.07;5.43;;;14.20;99.90;;;;;;9899388;30;20261;-82
2021/10/07 18:54:08;;;;;;;5.00;4.60;;;14.10;99.90;;;;;;9899073;30;20691;-81
2021/10/07 18:59:11;;;;;;;4.10;3.80;;;14.00;99.90;;;;;;9896570;30;20597;-81
2021/10/07 19:04:14;;;;;;;3.70;3.50;;;14.00;99.90;;;;;;9883580;30;20634;-82
2021/10/07 19:09:19;;;;;;;4.50;4.10;;;14.00;99.90;;;;;;9889826;30;20230;-82
2021/10/07 19:14:22;;;;;;;4.47;4.07;;;13.90;99.90;;;;;;9880016;30;20333;-82
2021/10/07 19:19:26;;;;;;;3.93;3.63;;;13.90;99.90;;;;;;9884593;30;20260;-82
2021/10/07 19:24:34;;;;;;;4.70;4.40;;;13.80;99.90;;;;;;9894489;30;20799;-82
2021/10/07 19:29:43;;;;;;;4.93;4.53;;;13.80;99.90;;;;;;9895404;30;20236;-82
2021/10/07 19:34:46;;;;;;;4.60;4.30;;;13.70;99.90;;;;;;9895682;30;20288;-83
2021/10/07 19:39:49;;;;;;;4.63;4.23;;;13.70;99.90;;;;;;9896748;30;20272;-81
2021/10/07 19:44:52;;;;;;;4.07;3.70;;;13.60;99.90;;;;;;9893771;30;20689;-82
2021/10/07 19:49:57;;;;;;;4.33;4.13;;;13.60;99.90;;;;;;9882504;30;20262;-83
2021/10/07 19:54:59;;;;;;;4.80;4.40;;;13.50;99.90;;;;;;9904047;30;20238;-81
2021/10/07 20:00:01;;;;;;;3.83;3.63;;;13.40;99.90;;;;;;9878403;30;20247;-81
2021/10/07 20:05:05;;;;;;;4.00;3.70;;;13.30;99.90;;;;;;9909543;30;20249;-81
2021/10/07 20:10:08;;;;;;;4.23;3.83;;;13.30;99.90;;;;;;9878079;30;20232;-82
2021/10/07 20:15:11;;;;;;;3.83;3.50;;;13.20;99.90;;;;;;9883080;30;20251;-82
2021/10/07 20:20:14;;;;;;;4.60;4.20;;;13.20;99.90;;;;;;9878155;30;20696;-81
2021/10/07 20:25:17;;;;;;;4.10;3.70;;;13.20;99.90;;;;;;9910454;29;20276;-81
2021/10/07 20:30:19;;;;;;;5.00;4.60;;;13.20;99.90;;;;;;9910043;30;20222;-81
2021/10/07 20:35:29;;;;;;;4.40;4.10;;;13.20;99.90;;;;;;9893871;29;20234;-81
2021/10/07 20:40:33;;;;;;;4.90;4.60;;;13.10;99.90;;;;;;9859101;30;20214;-81
2021/10/07 20:45:36;;;;;;;6.73;6.13;;;13.10;99.90;;;;;;9846114;30;20334;-81
2021/10/07 20:50:40;;;;;;;5.13;4.73;;;13.10;99.90;;;;;;9878915;30;20224;-82
2021/10/07 20:55:42;;;;;;;6.23;5.07;;;13.10;99.90;;;;;;9892616;29;20893;-81
2021/10/07 21:00:44;;;;;;;5.63;5.23;;;13.10;99.90;;;;;;9895075;30;20268;-81
2021/10/07 21:05:48;;;;;;;5.27;4.87;;;13.00;99.90;;;;;;9880052;29;20269;-82
2021/10/07 21:10:50;;;;;;;6.13;5.43;;;12.90;99.90;;;;;;9881919;30;20231;-81
2021/10/07 21:15:53;;;;;;;5.47;4.80;;;12.90;99.90;;;;;;9877542;29;20321;-81
2021/10/07 21:20:56;;;;;;;5.37;4.97;;;12.90;99.90;;;;;;9877983;30;20222;-81
2021/10/07 21:25:59;;;;;;;5.80;5.10;;;12.90;99.90;;;;;;9876725;29;20276;-81
2021/10/07 21:31:01;;;;;;;5.87;5.10;;;12.80;99.90;;;;;;9876961;30;20253;-81
2021/10/07 21:36:05;;;;;;;9.30;5.23;;;12.80;99.90;;;;;;9878313;29;20238;-82
2021/10/07 21:41:07;;;;;;;6.03;5.53;;;12.80;99.90;;;;;;9893836;30;20225;-82
2021/10/07 21:46:09;;;;;;;11.47;4.90;;;12.80;99.90;;;;;;9892693;29;20619;-81
2021/10/07 21:51:13;;;;;;;5.93;5.33;;;12.80;99.90;;;;;;9887324;30;20245;-81
2021/10/07 21:56:15;;;;;;;6.40;5.87;;;12.80;99.90;;;;;;9907859;29;20237;-81
2021/10/07 22:01:17;;;;;;;6.50;5.87;;;12.80;99.90;;;;;;9914497;30;20241;-81
2021/10/07 22:06:21;;;;;;;5.80;5.30;;;12.80;99.90;;;;;;9876337;29;21060;-81
2021/10/07 22:11:23;;;;;;;6.40;5.90;;;12.80;99.90;;;;;;9905206;30;20223;-82
2021/10/07 22:16:26;;;;;;;5.53;5.13;;;12.80;99.90;;;;;;9870215;29;20246;-81
2021/10/07 22:21:30;;;;;;;5.60;5.20;;;12.90;99.90;;;;;;9898604;30;20556;-81
2021/10/07 22:26:33;;;;;;;5.57;5.07;;;12.80;99.90;;;;;;9891313;29;20231;-81
2021/10/07 22:31:38;;;;;;;4.90;4.50;;;12.80;99.90;;;;;;9883420;30;20245;-81
2021/10/07 22:36:41;;;;;;;4.70;4.40;;;12.90;99.90;;;;;;9895593;29;20648;-81
2021/10/07 22:41:43;;;;;;;5.93;5.00;;;12.90;99.90;;;;;;9886813;30;20218;-81
2021/10/07 22:46:45;;;;;;;6.50;3.90;;;12.90;99.90;;;;;;9866879;29;20266;-81
2021/10/07 22:51:49;;;;;;;5.23;4.70;;;13.00;99.90;;;;;;9910332;30;20318;-81
2021/10/07 22:56:51;;;;;;;4.73;4.33;;;13.10;99.90;;;;;;9893291;29;20238;-81
2021/10/07 23:01:53;;;;;;;5.23;4.83;;;13.20;99.90;;;;;;9892938;30;20214;-82
2021/10/07 23:06:56;;;;;;;4.60;4.30;;;13.30;99.90;;;;;;9877639;29;20244;-81
2021/10/07 23:11:58;;;;;;;4.30;4.10;;;13.30;99.90;;;;;;9884333;30;20215;-81
2021/10/07 23:17:01;;;;;;;5.03;4.73;;;13.30;99.90;;;;;;9887196;29;20257;-82
2021/10/07 23:22:04;;;;;;;4.87;4.47;;;13.40;99.90;;;;;;9891199;30;20221;-81
2021/10/07 23:27:06;;;;;;;4.80;4.40;;;13.40;99.90;;;;;;9906480;29;20700;-81
2021/10/07 23:32:08;;;;;;;5.13;4.70;;;13.50;99.90;;;;;;9888498;30;20250;-81
2021/10/07 23:37:13;;;;;;;5.90;4.57;;;13.50;99.90;;;;;;9892939;29;20235;-81
2021/10/07 23:42:15;;;;;;;5.50;5.10;;;13.50;99.90;;;;;;9884830;30;20223;-81
2021/10/07 23:47:17;;;;;;;4.97;4.67;;;13.60;99.90;;;;;;9864784;29;20238;-81
2021/10/07 23:52:21;;;;;;;5.30;4.90;;;13.60;99.90;;;;;;9904679;30;20300;-81
2021/10/07 23:57:23;;;;;;;4.90;4.50;;;13.60;99.90;;;;;;9879220;29;20686;-81
